sensor_id;sensor_type;location;lat;lon;timestamp;pressure;altitude;pressure_sealevel;temperature;humidity
39265;BME280;42646;51.910;7.724;2023-05-12T00:01:53;100869.22;;;13.76;100.00
39265;BME280;42646;51.910;7.724;2023-05-12T00:04:22;100871.34;;;13.73;100.00
39265;BME280;42646;51.910;7.724;2023-05-12T00:06:50;100872.34;;;13.72;100.00
39265;BME280;42646;51.910;7.724;2023-05-12T00:09:18;100874.34;;;13.70;100.00
39265;BME280;42646;51.910;7.724;2023-05-12T00:11:45;100876.16;;;13.69;100.00
39265;BME280;42646;51.910;7.724;2023-05-12T00:14:13;100876.31;;;13.68;100.00
39265;BME280;42646;51.910;7.724;2023-05-12T00:16:41;100867.59;;;13.66;100.00
39265;BME280;42646;51.910;7.724;2023-05-12T00:19:09;100874.78;;;13.65;100.00
39265;BME280;42646;51.910;7.724;2023-05-12T00:21:38;100872.25;;;13.63;100.00
39265;BME280;42646;51.910;7.724;2023-05-12T00:24:10;100880.44;;;13.62;100.00
39265;BME280;42646;51.910;7.724;2023-05-12T00:26:38;100887.59;;;13.61;100.00
39265;BME280;42646;51.910;7.724;2023-05-12T00:29:06;100883.56;;;13.57;100.00
39265;BME280;42646;51.910;7.724;2023-05-12T00:31:34;100881.88;;;13.56;100.00
39265;BME280;42646;51.910;7.724;2023-05-12T00:34:02;100879.19;;;13.56;100.00
39265;BME280;42646;51.910;7.724;2023-05-12T00:36:30;100887.38;;;13.55;100.00
39265;BME280;42646;51.910;7.724;2023-05-12T00:38:59;100879.53;;;13.53;100.00
39265;BME280;42646;51.910;7.724;2023-05-12T00:41:27;100894.72;;;13.53;100.00
39265;BME280;42646;51.910;7.724;2023-05-12T00:43:55;100893.88;;;13.52;100.00
39265;BME280;42646;51.910;7.724;2023-05-12T00:46:23;100894.84;;;13.51;100.00
39265;BME280;42646;51.910;7.724;2023-05-12T00:48:52;100894.19;;;13.49;100.00
39265;BME280;42646;51.910;7.724;2023-05-12T00:51:20;100896.00;;;13.49;100.00
39265;BME280;42646;51.910;7.724;2023-05-12T00:53:49;100897.84;;;13.48;100.00
39265;BME280;42646;51.910;7.724;2023-05-12T00:56:20;100889.16;;;13.46;100.00
39265;BME280;42646;51.910;7.724;2023-05-12T00:58:53;100893.78;;;13.44;100.00
39265;BME280;42646;51.910;7.724;2023-05-12T01:01:21;100889.44;;;13.43;100.00
39265;BME280;42646;51.910;7.724;2023-05-12T01:03:52;100892.25;;;13.42;100.00
39265;BME280;42646;51.910;7.724;2023-05-12T01:06:26;100891.44;;;13.41;100.00
39265;BME280;42646;51.910;7.724;2023-05-12T01:08:56;100891.56;;;13.40;100.00
39265;BME280;42646;51.910;7.724;2023-05-12T01:11:25;100888.88;;;13.40;100.00
39265;BME280;42646;51.910;7.724;2023-05-12T01:13:53;100885.38;;;13.39;100.00
39265;BME280;42646;51.910;7.724;2023-05-12T01:16:22;100890.03;;;13.37;100.00
39265;BME280;42646;51.910;7.724;2023-05-12T01:18:54;100884.00;;;13.35;100.00
39265;BME280;42646;51.910;7.724;2023-05-12T01:21:24;100884.97;;;13.34;100.00
39265;BME280;42646;51.910;7.724;2023-05-12T01:23:57;100885.97;;;13.33;100.00
39265;BME280;42646;51.910;7.724;2023-05-12T01:26:29;100884.97;;;13.34;100.00
39265;BME280;42646;51.910;7.724;2023-05-12T01:34:17;100898.66;;;13.31;100.00
39265;BME280;42646;51.910;7.724;2023-05-12T01:36:55;100891.63;;;13.30;100.00
39265;BME280;42646;51.910;7.724;2023-05-12T01:39:23;100884.63;;;13.29;100.00
39265;BME280;42646;51.910;7.724;2023-05-12T01:41:54;100896.13;;;13.29;100.00
39265;BME280;42646;51.910;7.724;2023-05-12T01:44:50;100891.63;;;13.30;100.00
39265;BME280;42646;51.910;7.724;2023-05-12T01:47:19;100896.13;;;13.29;100.00
39265;BME280;42646;51.910;7.724;2023-05-12T01:50:07;100895.31;;;13.29;100.00
39265;BME280;42646;51.910;7.724;2023-05-12T01:52:36;100891.91;;;13.27;100.00
39265;BME280;42646;51.910;7.724;2023-05-12T01:55:08;100894.59;;;13.27;100.00
39265;BME280;42646;51.910;7.724;2023-05-12T01:57:45;100896.44;;;13.26;100.00
39265;BME280;42646;51.910;7.724;2023-05-12T02:00:14;100894.75;;;13.25;100.00
39265;BME280;42646;51.910;7.724;2023-05-12T02:03:08;100898.56;;;13.23;100.00
39265;BME280;42646;51.910;7.724;2023-05-12T02:05:37;100911.94;;;13.23;100.00
39265;BME280;42646;51.910;7.724;2023-05-12T02:08:05;100908.56;;;13.21;100.00
39265;BME280;42646;51.910;7.724;2023-05-12T02:10:33;100904.16;;;13.20;100.00
39265;BME280;42646;51.910;7.724;2023-05-12T02:13:03;100911.50;;;13.18;100.00
39265;BME280;42646;51.910;7.724;2023-05-12T02:15:33;100909.50;;;13.20;100.00
39265;BME280;42646;51.910;7.724;2023-05-12T02:18:01;100900.09;;;13.16;100.00
39265;BME280;42646;51.910;7.724;2023-05-12T02:20:30;100906.44;;;13.15;100.00
39265;BME280;42646;51.910;7.724;2023-05-12T02:22:58;100904.59;;;13.15;100.00
39265;BME280;42646;51.910;7.724;2023-05-12T02:25:32;100902.94;;;13.14;100.00
39265;BME280;42646;51.910;7.724;2023-05-12T02:27:59;100904.91;;;13.12;100.00
39265;BME280;42646;51.910;7.724;2023-05-12T02:30:28;100913.94;;;13.11;100.00
39265;BME280;42646;51.910;7.724;2023-05-12T02:32:56;100910.41;;;13.10;100.00
39265;BME280;42646;51.910;7.724;2023-05-12T02:35:24;100913.38;;;13.07;100.00
39265;BME280;42646;51.910;7.724;2023-05-12T02:37:52;100912.53;;;13.07;100.00
39265;BME280;42646;51.910;7.724;2023-05-12T02:40:21;100903.84;;;13.05;100.00
39265;BME280;42646;51.910;7.724;2023-05-12T02:42:49;100913.81;;;13.03;100.00
39265;BME280;42646;51.910;7.724;2023-05-12T02:45:17;100912.97;;;13.02;100.00
39265;BME280;42646;51.910;7.724;2023-05-12T02:47:46;100912.28;;;13.00;100.00
39265;BME280;42646;51.910;7.724;2023-05-12T02:50:14;100910.75;;;12.98;100.00
39265;BME280;42646;51.910;7.724;2023-05-12T02:52:42;100910.91;;;12.96;100.00
39265;BME280;42646;51.910;7.724;2023-05-12T02:55:10;100911.06;;;12.95;100.00
39265;BME280;42646;51.910;7.724;2023-05-12T02:57:38;100907.69;;;12.93;100.00
39265;BME280;42646;51.910;7.724;2023-05-12T03:00:07;100899.69;;;12.93;100.00
39265;BME280;42646;51.910;7.724;2023-05-12T03:02:38;100914.84;;;12.92;100.00
39265;BME280;42646;51.910;7.724;2023-05-12T03:05:08;100907.81;;;12.91;100.00
39265;BME280;42646;51.910;7.724;2023-05-12T03:07:39;100908.81;;;12.90;100.00
39265;BME280;42646;51.910;7.724;2023-05-12T03:10:08;100899.28;;;12.88;100.00
39265;BME280;42646;51.910;7.724;2023-05-12T03:12:36;100915.16;;;12.89;100.00
39265;BME280;42646;51.910;7.724;2023-05-12T03:15:04;100919.94;;;12.86;100.00
39265;BME280;42646;51.910;7.724;2023-05-12T03:17:37;100908.56;;;12.83;100.00
39265;BME280;42646;51.910;7.724;2023-05-12T03:20:07;100906.88;;;12.82;100.00
39265;BME280;42646;51.910;7.724;2023-05-12T03:22:36;100911.38;;;12.82;100.00
39265;BME280;42646;51.910;7.724;2023-05-12T03:25:06;100914.06;;;12.82;100.00
39265;BME280;42646;51.910;7.724;2023-05-12T03:27:35;100914.34;;;12.79;100.00
39265;BME280;42646;51.910;7.724;2023-05-12T03:30:03;100914.50;;;12.77;100.00
39265;BME280;42646;51.910;7.724;2023-05-12T03:32:37;100917.59;;;12.73;100.00
39265;BME280;42646;51.910;7.724;2023-05-12T03:35:10;100912.41;;;12.71;100.00
39265;BME280;42646;51.910;7.724;2023-05-12T03:37:39;100919.72;;;12.69;100.00
39265;BME280;42646;51.910;7.724;2023-05-12T03:40:33;100922.25;;;12.71;100.00
39265;BME280;42646;51.910;7.724;2023-05-12T03:43:01;100922.41;;;12.69;100.00
39265;BME280;42646;51.910;7.724;2023-05-12T03:45:29;100927.84;;;12.68;100.00
39265;BME280;42646;51.910;7.724;2023-05-12T03:47:57;100927.03;;;12.67;100.00
39265;BME280;42646;51.910;7.724;2023-05-12T03:50:26;100927.03;;;12.67;100.00
39265;BME280;42646;51.910;7.724;2023-05-12T03:52:53;100930.69;;;12.66;100.00
39265;BME280;42646;51.910;7.724;2023-05-12T03:55:22;100924.50;;;12.66;100.00
39265;BME280;42646;51.910;7.724;2023-05-12T03:57:49;100931.66;;;12.65;100.00
39265;BME280;42646;51.910;7.724;2023-05-12T04:00:19;100933.66;;;12.63;100.00
39265;BME280;42646;51.910;7.724;2023-05-12T04:02:48;100938.13;;;12.63;100.00
39265;BME280;42646;51.910;7.724;2023-05-12T04:05:46;100943.47;;;12.63;100.00
39265;BME280;42646;51.910;7.724;2023-05-12T04:08:15;100942.78;;;12.61;100.00
39265;BME280;42646;51.910;7.724;2023-05-12T04:10:44;100951.78;;;12.60;100.00
39265;BME280;42646;51.910;7.724;2023-05-12T04:13:12;100949.94;;;12.60;100.00
39265;BME280;42646;51.910;7.724;2023-05-12T04:15:40;100952.63;;;12.60;100.00
39265;BME280;42646;51.910;7.724;2023-05-12T04:18:08;100952.75;;;12.59;100.00
39265;BME280;42646;51.910;7.724;2023-05-12T04:20:38;100953.59;;;12.59;100.00
39265;BME280;42646;51.910;7.724;2023-05-12T04:23:07;100955.44;;;12.59;100.00
39265;BME280;42646;51.910;7.724;2023-05-12T04:25:37;100960.78;;;12.59;100.00
39265;BME280;42646;51.910;7.724;2023-05-12T04:28:07;100960.78;;;12.59;100.00
39265;BME280;42646;51.910;7.724;2023-05-12T04:30:39;100966.94;;;12.59;100.00
39265;BME280;42646;51.910;7.724;2023-05-12T04:33:07;100973.28;;;12.58;100.00
39265;BME280;42646;51.910;7.724;2023-05-12T04:35:37;100967.94;;;12.58;100.00
39265;BME280;42646;51.910;7.724;2023-05-12T04:38:06;100976.06;;;12.56;100.00
39265;BME280;42646;51.910;7.724;2023-05-12T04:40:35;100984.78;;;12.59;100.00
39265;BME280;42646;51.910;7.724;2023-05-12T04:43:03;100983.13;;;12.57;100.00
39265;BME280;42646;51.910;7.724;2023-05-12T04:45:31;100986.47;;;12.60;100.00
39265;BME280;42646;51.910;7.724;2023-05-12T04:48:03;100997.00;;;12.61;100.00
39265;BME280;42646;51.910;7.724;2023-05-12T04:50:31;101001.34;;;12.62;100.00
39265;BME280;42646;51.910;7.724;2023-05-12T04:52:59;101003.91;;;12.64;100.00
39265;BME280;42646;51.910;7.724;2023-05-12T04:55:28;101010.91;;;12.65;100.00
39265;BME280;42646;51.910;7.724;2023-05-12T04:57:57;101004.59;;;12.66;100.00
39265;BME280;42646;51.910;7.724;2023-05-12T05:00:24;101008.09;;;12.66;100.00
39265;BME280;42646;51.910;7.724;2023-05-12T05:02:52;101014.13;;;12.68;100.00
39265;BME280;42646;51.910;7.724;2023-05-12T05:05:21;101018.34;;;12.71;100.00
39265;BME280;42646;51.910;7.724;2023-05-12T05:07:50;101025.38;;;12.72;100.00
39265;BME280;42646;51.910;7.724;2023-05-12T05:10:18;101024.53;;;12.71;100.00
39265;BME280;42646;51.910;7.724;2023-05-12T05:12:48;101030.69;;;12.72;100.00
39265;BME280;42646;51.910;7.724;2023-05-12T05:15:16;101037.56;;;12.74;100.00
39265;BME280;42646;51.910;7.724;2023-05-12T05:17:46;101037.44;;;12.76;100.00
39265;BME280;42646;51.910;7.724;2023-05-12T05:20:16;101039.13;;;12.77;100.00
39265;BME280;42646;51.910;7.724;2023-05-12T05:22:46;101045.00;;;12.80;100.00
39265;BME280;42646;51.910;7.724;2023-05-12T05:25:14;101048.56;;;12.81;100.00
39265;BME280;42646;51.910;7.724;2023-05-12T05:27:42;101053.75;;;12.82;100.00
39265;BME280;42646;51.910;7.724;2023-05-12T05:30:11;101057.25;;;12.83;100.00
39265;BME280;42646;51.910;7.724;2023-05-12T05:32:40;101050.75;;;12.86;100.00
39265;BME280;42646;51.910;7.724;2023-05-12T05:35:08;101052.44;;;12.87;100.00
39265;BME280;42646;51.910;7.724;2023-05-12T05:37:41;101066.38;;;12.90;100.00
39265;BME280;42646;51.910;7.724;2023-05-12T05:40:09;101059.91;;;12.93;100.00
39265;BME280;42646;51.910;7.724;2023-05-12T05:42:38;101062.13;;;12.97;100.00
39265;BME280;42646;51.910;7.724;2023-05-12T05:45:07;101066.63;;;12.97;100.00
39265;BME280;42646;51.910;7.724;2023-05-12T05:47:37;101066.34;;;13.00;100.00
39265;BME280;42646;51.910;7.724;2023-05-12T05:50:06;101067.03;;;13.02;100.00
39265;BME280;42646;51.910;7.724;2023-05-12T05:52:36;101070.28;;;13.05;100.00
39265;BME280;42646;51.910;7.724;2023-05-12T05:55:06;101070.97;;;13.07;100.00
39265;BME280;42646;51.910;7.724;2023-05-12T05:57:34;101077.72;;;13.12;100.00
39265;BME280;42646;51.910;7.724;2023-05-12T06:00:04;101073.91;;;13.14;100.00
39265;BME280;42646;51.910;7.724;2023-05-12T06:02:40;101076.72;;;13.13;100.00
39265;BME280;42646;51.910;7.724;2023-05-12T06:05:18;101085.44;;;13.15;100.00
39265;BME280;42646;51.910;7.724;2023-05-12T06:07:48;101086.16;;;13.17;100.00
39265;BME280;42646;51.910;7.724;2023-05-12T06:10:16;101084.31;;;13.17;100.00
39265;BME280;42646;51.910;7.724;2023-05-12T06:12:44;101095.00;;;13.17;100.00
39265;BME280;42646;51.910;7.724;2023-05-12T06:15:12;101093.28;;;13.16;100.00
39265;BME280;42646;51.910;7.724;2023-05-12T06:17:42;101094.16;;;13.17;100.00
39265;BME280;42646;51.910;7.724;2023-05-12T06:20:11;101099.19;;;13.20;100.00
39265;BME280;42646;51.910;7.724;2023-05-12T06:22:40;101103.31;;;13.24;100.00
39265;BME280;42646;51.910;7.724;2023-05-12T06:25:09;101105.66;;;13.27;100.00
39265;BME280;42646;51.910;7.724;2023-05-12T06:27:37;101108.75;;;13.32;100.00
39265;BME280;42646;51.910;7.724;2023-05-12T06:30:06;101103.97;;;13.35;100.00
39265;BME280;42646;51.910;7.724;2023-05-12T06:32:33;101101.72;;;13.41;100.00
39265;BME280;42646;51.910;7.724;2023-05-12T06:35:06;101102.09;;;13.46;100.00
39265;BME280;42646;51.910;7.724;2023-05-12T06:37:34;101105.31;;;13.49;100.00
39265;BME280;42646;51.910;7.724;2023-05-12T06:40:01;101102.22;;;13.54;100.00
39265;BME280;42646;51.910;7.724;2023-05-12T06:42:30;101105.59;;;13.56;100.00
39265;BME280;42646;51.910;7.724;2023-05-12T06:44:59;101113.16;;;13.60;100.00
39265;BME280;42646;51.910;7.724;2023-05-12T06:47:26;101110.06;;;13.65;100.00
39265;BME280;42646;51.910;7.724;2023-05-12T06:49:56;101107.91;;;13.69;100.00
39265;BME280;42646;51.910;7.724;2023-05-12T06:52:25;101110.84;;;13.75;100.00
39265;BME280;42646;51.910;7.724;2023-05-12T06:54:55;101115.75;;;13.80;100.00
39265;BME280;42646;51.910;7.724;2023-05-12T06:57:24;101117.72;;;13.87;100.00
39265;BME280;42646;51.910;7.724;2023-05-12T06:59:53;101119.78;;;13.94;100.00
39265;BME280;42646;51.910;7.724;2023-05-12T07:02:20;101114.81;;;13.99;100.00
39265;BME280;42646;51.910;7.724;2023-05-12T07:04:48;101121.41;;;14.04;100.00
39265;BME280;42646;51.910;7.724;2023-05-12T07:07:16;101127.16;;;14.09;100.00
39265;BME280;42646;51.910;7.724;2023-05-12T07:09:45;101129.53;;;14.12;100.00
39265;BME280;42646;51.910;7.724;2023-05-12T07:12:13;101129.94;;;14.18;100.00
39265;BME280;42646;51.910;7.724;2023-05-12T07:14:40;101127.50;;;14.24;100.00
39265;BME280;42646;51.910;7.724;2023-05-12T07:17:10;101134.09;;;14.30;100.00
39265;BME280;42646;51.910;7.724;2023-05-12T07:19:37;101128.97;;;14.36;100.00
39265;BME280;42646;51.910;7.724;2023-05-12T07:22:05;101129.66;;;14.38;100.00
39265;BME280;42646;51.910;7.724;2023-05-12T07:24:33;101130.19;;;14.42;100.00
39265;BME280;42646;51.910;7.724;2023-05-12T07:27:02;101135.09;;;14.47;100.00
39265;BME280;42646;51.910;7.724;2023-05-12T07:29:30;101138.03;;;14.53;100.00
39265;BME280;42646;51.910;7.724;2023-05-12T07:32:00;101141.94;;;14.59;100.00
39265;BME280;42646;51.910;7.724;2023-05-12T07:34:28;101141.47;;;14.63;100.00
39265;BME280;42646;51.910;7.724;2023-05-12T07:36:58;101136.81;;;14.65;100.00
39265;BME280;42646;51.910;7.724;2023-05-12T07:39:28;101141.69;;;14.70;100.00
39265;BME280;42646;51.910;7.724;2023-05-12T07:41:58;101144.75;;;14.75;100.00
39265;BME280;42646;51.910;7.724;2023-05-12T07:44:29;101149.66;;;14.80;100.00
39265;BME280;42646;51.910;7.724;2023-05-12T07:46:58;101145.81;;;14.82;100.00
39265;BME280;42646;51.910;7.724;2023-05-12T07:49:26;101140.84;;;14.87;100.00
39265;BME280;42646;51.910;7.724;2023-05-12T07:51:54;101146.91;;;14.89;100.00
39265;BME280;42646;51.910;7.724;2023-05-12T07:54:22;101148.44;;;14.92;100.00
39265;BME280;42646;51.910;7.724;2023-05-12T07:56:50;101148.13;;;14.95;100.00
39265;BME280;42646;51.910;7.724;2023-05-12T07:59:18;101151.50;;;14.97;100.00
39265;BME280;42646;51.910;7.724;2023-05-12T08:01:50;101144.97;;;15.00;100.00
39265;BME280;42646;51.910;7.724;2023-05-12T08:04:19;101147.34;;;15.03;100.00
39265;BME280;42646;51.910;7.724;2023-05-12T08:06:48;101148.03;;;15.05;100.00
39265;BME280;42646;51.910;7.724;2023-05-12T08:09:19;101146.88;;;15.07;100.00
39265;BME280;42646;51.910;7.724;2023-05-12T08:11:48;101145.72;;;15.10;100.00
39265;BME280;42646;51.910;7.724;2023-05-12T08:14:17;101149.41;;;15.09;100.00
39265;BME280;42646;51.910;7.724;2023-05-12T08:16:47;101142.88;;;15.11;100.00
39265;BME280;42646;51.910;7.724;2023-05-12T08:19:16;101149.47;;;15.17;100.00
39265;BME280;42646;51.910;7.724;2023-05-12T08:21:44;101149.00;;;15.21;100.00
39265;BME280;42646;51.910;7.724;2023-05-12T08:24:12;101154.91;;;15.25;100.00
39265;BME280;42646;51.910;7.724;2023-05-12T08:26:40;101150.88;;;15.29;100.00
39265;BME280;42646;51.910;7.724;2023-05-12T08:29:08;101157.63;;;15.33;100.00
39265;BME280;42646;51.910;7.724;2023-05-12T08:31:37;101162.69;;;15.36;100.00
39265;BME280;42646;51.910;7.724;2023-05-12T08:34:06;101167.03;;;15.37;100.00
39265;BME280;42646;51.910;7.724;2023-05-12T08:36:41;101161.84;;;15.36;100.00
39265;BME280;42646;51.910;7.724;2023-05-12T08:39:09;101164.03;;;15.40;100.00
39265;BME280;42646;51.910;7.724;2023-05-12T08:41:42;101162.91;;;15.43;100.00
39265;BME280;42646;51.910;7.724;2023-05-12T08:44:11;101171.25;;;15.40;100.00
39265;BME280;42646;51.910;7.724;2023-05-12T08:46:44;101168.56;;;15.40;100.00
39265;BME280;42646;51.910;7.724;2023-05-12T08:49:16;101169.09;;;15.43;100.00
39265;BME280;42646;51.910;7.724;2023-05-12T08:51:52;101173.28;;;15.46;100.00
39265;BME280;42646;51.910;7.724;2023-05-12T08:54:28;101175.69;;;15.49;100.00
39265;BME280;42646;51.910;7.724;2023-05-12T08:56:56;101177.03;;;15.53;100.00
39265;BME280;42646;51.910;7.724;2023-05-12T08:59:27;101176.38;;;15.59;100.00
39265;BME280;42646;51.910;7.724;2023-05-12T09:01:55;101183.00;;;15.65;100.00
39265;BME280;42646;51.910;7.724;2023-05-12T09:04:22;101172.63;;;15.70;100.00
39265;BME280;42646;51.910;7.724;2023-05-12T09:06:51;101173.00;;;15.75;100.00
39265;BME280;42646;51.910;7.724;2023-05-12T09:09:22;101181.59;;;15.79;100.00
39265;BME280;42646;51.910;7.724;2023-05-12T09:11:55;101176.88;;;15.81;100.00
39265;BME280;42646;51.910;7.724;2023-05-12T09:14:24;101178.25;;;15.85;100.00
39265;BME280;42646;51.910;7.724;2023-05-12T09:16:55;101181.31;;;15.90;100.00
39265;BME280;42646;51.910;7.724;2023-05-12T09:19:26;101177.81;;;15.97;100.00
39265;BME280;42646;51.910;7.724;2023-05-12T09:21:57;101171.97;;;16.02;100.00
39265;BME280;42646;51.910;7.724;2023-05-12T09:24:33;101173.19;;;16.08;100.00
39265;BME280;42646;51.910;7.724;2023-05-12T09:27:01;101178.72;;;16.14;100.00
39265;BME280;42646;51.910;7.724;2023-05-12T09:29:35;101179.94;;;16.20;100.00
39265;BME280;42646;51.910;7.724;2023-05-12T09:32:29;101181.81;;;16.27;100.00
39265;BME280;42646;51.910;7.724;2023-05-12T09:35:04;101169.56;;;16.33;100.00
39265;BME280;42646;51.910;7.724;2023-05-12T09:37:34;101167.91;;;16.40;99.09
39265;BME280;42646;51.910;7.724;2023-05-12T09:40:04;101167.25;;;16.46;97.87
39265;BME280;42646;51.910;7.724;2023-05-12T09:42:41;101167.44;;;16.53;98.13
39265;BME280;42646;51.910;7.724;2023-05-12T09:45:09;101169.13;;;16.62;98.12
39265;BME280;42646;51.910;7.724;2023-05-12T09:47:38;101167.19;;;16.72;97.88
39265;BME280;42646;51.910;7.724;2023-05-12T09:50:07;101165.16;;;16.82;97.51
39265;BME280;42646;51.910;7.724;2023-05-12T09:52:38;101161.47;;;16.92;95.75
39265;BME280;42646;51.910;7.724;2023-05-12T09:55:09;101166.53;;;17.03;94.66
39265;BME280;42646;51.910;7.724;2023-05-12T09:57:39;101170.88;;;17.12;94.13
39265;BME280;42646;51.910;7.724;2023-05-12T10:00:09;101162.47;;;17.23;91.06
39265;BME280;42646;51.910;7.724;2023-05-12T10:02:58;101161.13;;;17.27;89.95
39265;BME280;42646;51.910;7.724;2023-05-12T10:05:29;101165.34;;;17.38;90.66
39265;BME280;42646;51.910;7.724;2023-05-12T10:08:02;101164.97;;;17.49;89.39
39265;BME280;42646;51.910;7.724;2023-05-12T10:10:32;101170.50;;;17.56;88.96
39265;BME280;42646;51.910;7.724;2023-05-12T10:13:01;101164.25;;;17.63;87.60
39265;BME280;42646;51.910;7.724;2023-05-12T10:15:30;101168.31;;;17.76;87.79
39265;BME280;42646;51.910;7.724;2023-05-12T10:17:59;101167.44;;;17.83;88.53
39265;BME280;42646;51.910;7.724;2023-05-12T10:20:27;101157.13;;;17.95;88.51
39265;BME280;42646;51.910;7.724;2023-05-12T10:22:56;101153.59;;;18.03;87.79
39265;BME280;42646;51.910;7.724;2023-05-12T10:25:27;101151.03;;;18.09;86.64
39265;BME280;42646;51.910;7.724;2023-05-12T10:28:00;101143.03;;;18.24;87.83
39265;BME280;42646;51.910;7.724;2023-05-12T10:30:29;101141.44;;;18.38;86.96
39265;BME280;42646;51.910;7.724;2023-05-12T10:32:59;101149.91;;;18.58;87.85
39265;BME280;42646;51.910;7.724;2023-05-12T10:35:31;101147.41;;;18.79;86.05
39265;BME280;42646;51.910;7.724;2023-05-12T10:38:01;101145.63;;;18.94;83.70
39265;BME280;42646;51.910;7.724;2023-05-12T10:40:31;101154.97;;;19.07;80.00
39265;BME280;42646;51.910;7.724;2023-05-12T10:42:59;101145.94;;;19.14;79.17
39265;BME280;42646;51.910;7.724;2023-05-12T10:45:27;101149.44;;;19.23;78.90
39265;BME280;42646;51.910;7.724;2023-05-12T10:48:06;101153.34;;;19.35;80.40
39265;BME280;42646;51.910;7.724;2023-05-12T10:50:35;101147.69;;;19.45;80.47
39265;BME280;42646;51.910;7.724;2023-05-12T10:53:03;101144.06;;;19.53;80.59
39265;BME280;42646;51.910;7.724;2023-05-12T10:55:40;101140.94;;;19.64;78.60
39265;BME280;42646;51.910;7.724;2023-05-12T10:58:11;101141.03;;;19.70;76.71
39265;BME280;42646;51.910;7.724;2023-05-12T11:00:44;101140.94;;;19.79;76.54
39265;BME280;42646;51.910;7.724;2023-05-12T11:03:13;101140.38;;;19.83;75.49
39265;BME280;42646;51.910;7.724;2023-05-12T11:05:45;101148.56;;;19.90;74.02
39265;BME280;42646;51.910;7.724;2023-05-12T11:08:14;101140.66;;;19.88;72.25
39265;BME280;42646;51.910;7.724;2023-05-12T11:10:45;101139.06;;;19.94;73.51
39265;BME280;42646;51.910;7.724;2023-05-12T11:13:13;101131.16;;;19.92;71.24
39265;BME280;42646;51.910;7.724;2023-05-12T11:15:42;101139.84;;;19.88;72.26
39265;BME280;42646;51.910;7.724;2023-05-12T11:18:10;101134.03;;;19.91;72.16
39265;BME280;42646;51.910;7.724;2023-05-12T11:20:39;101136.47;;;20.00;73.04
39265;BME280;42646;51.910;7.724;2023-05-12T11:23:07;101131.34;;;20.06;70.65
39265;BME280;42646;51.910;7.724;2023-05-12T11:25:35;101139.03;;;20.09;71.46
39265;BME280;42646;51.910;7.724;2023-05-12T11:28:09;101132.25;;;20.13;72.31
39265;BME280;42646;51.910;7.724;2023-05-12T11:30:47;101129.69;;;20.26;73.04
39265;BME280;42646;51.910;7.724;2023-05-12T11:33:19;101127.53;;;20.36;72.82
39265;BME280;42646;51.910;7.724;2023-05-12T11:35:48;101127.59;;;20.43;72.97
39265;BME280;42646;51.910;7.724;2023-05-12T11:38:17;101125.84;;;20.50;71.84
39265;BME280;42646;51.910;7.724;2023-05-12T11:40:47;101124.63;;;20.52;71.00
39265;BME280;42646;51.910;7.724;2023-05-12T11:43:20;101120.50;;;20.57;70.23
39265;BME280;42646;51.910;7.724;2023-05-12T11:45:48;101117.94;;;20.70;71.81
39265;BME280;42646;51.910;7.724;2023-05-12T11:48:16;101114.91;;;20.79;72.11
39265;BME280;42646;51.910;7.724;2023-05-12T11:50:45;101115.41;;;20.90;71.75
39265;BME280;42646;51.910;7.724;2023-05-12T11:53:15;101116.94;;;20.99;70.70
39265;BME280;42646;51.910;7.724;2023-05-12T11:55:47;101122.41;;;21.05;70.21
39265;BME280;42646;51.910;7.724;2023-05-12T11:58:22;101118.53;;;21.15;69.69
39265;BME280;42646;51.910;7.724;2023-05-12T12:00:52;101120.66;;;21.19;67.80
39265;BME280;42646;51.910;7.724;2023-05-12T12:03:20;101126.44;;;21.16;66.48
39265;BME280;42646;51.910;7.724;2023-05-12T12:05:57;101116.84;;;21.14;64.09
39265;BME280;42646;51.910;7.724;2023-05-12T12:08:25;101115.63;;;21.16;64.48
39265;BME280;42646;51.910;7.724;2023-05-12T12:10:53;101120.84;;;21.18;64.33
39265;BME280;42646;51.910;7.724;2023-05-12T12:13:23;101125.66;;;21.22;63.00
39265;BME280;42646;51.910;7.724;2023-05-12T12:15:51;101126.72;;;21.28;62.96
39265;BME280;42646;51.910;7.724;2023-05-12T12:18:19;101114.72;;;21.30;63.08
39265;BME280;42646;51.910;7.724;2023-05-12T12:20:47;101122.69;;;21.39;62.61
39265;BME280;42646;51.910;7.724;2023-05-12T12:23:18;101115.44;;;21.46;61.42
39265;BME280;42646;51.910;7.724;2023-05-12T12:25:46;101122.13;;;21.50;61.14
39265;BME280;42646;51.910;7.724;2023-05-12T12:28:15;101115.88;;;21.49;61.71
39265;BME280;42646;51.910;7.724;2023-05-12T12:30:44;101124.81;;;21.43;62.81
39265;BME280;42646;51.910;7.724;2023-05-12T12:33:12;101126.44;;;21.38;62.24
39265;BME280;42646;51.910;7.724;2023-05-12T12:35:40;101117.84;;;21.34;62.81
39265;BME280;42646;51.910;7.724;2023-05-12T12:38:08;101116.59;;;21.30;62.42
39265;BME280;42646;51.910;7.724;2023-05-12T12:40:36;101124.66;;;21.23;61.91
39265;BME280;42646;51.910;7.724;2023-05-12T12:43:03;101117.94;;;21.19;59.63
39265;BME280;42646;51.910;7.724;2023-05-12T12:45:32;101118.44;;;21.01;58.78
39265;BME280;42646;51.910;7.724;2023-05-12T12:48:01;101117.34;;;20.96;59.02
39265;BME280;42646;51.910;7.724;2023-05-12T12:50:29;101119.78;;;20.91;59.85
39265;BME280;42646;51.910;7.724;2023-05-12T12:52:57;101115.41;;;20.90;59.88
39265;BME280;42646;51.910;7.724;2023-05-12T12:55:25;101117.28;;;20.89;57.31
39265;BME280;42646;51.910;7.724;2023-05-12T12:57:53;101117.41;;;20.81;58.43
39265;BME280;42646;51.910;7.724;2023-05-12T13:00:20;101127.59;;;20.79;59.94
39265;BME280;42646;51.910;7.724;2023-05-12T13:02:49;101117.34;;;20.74;59.76